Time;durP1;ratioP1;P1;durP2;ratioP2;P2;SDS_P1;SDS_P2;PMS_P1;PMS_P2;Temp;Humidity;BMP_temperature;BMP_pressure;BME280_temperature;BME280_humidity;BME280_pressure;Samples;Min_cycle;Max_cycle;Signal;HPM_P1;HPM_P2
2022/11/05 00:10:15;;;;;;;2.10;1.58;;;9.20;79.50;;;;;;5079519;28;20105;-65
2022/11/05 00:18:09;;;;;;;1.52;1.40;;;9.40;80.10;;;;;;5087928;28;20347;-65
2022/11/05 00:20:35;;;;;;;4.22;1.67;;;9.50;80.30;;;;;;5088692;28;20025;-65
2022/11/05 00:26:02;;;;;;;3.03;0.77;;;9.60;80.40;;;;;;5087376;28;20164;-65
2022/11/05 00:28:29;;;;;;;0.95;0.70;;;9.80;80.50;;;;;;5091764;28;20120;-69
2022/11/05 00:31:10;;;;;;;1.33;1.15;;;9.80;80.70;;;;;;5086760;28;20020;-69
2022/11/05 00:33:37;;;;;;;3.45;1.40;;;9.90;80.40;;;;;;5090121;28;20031;-66
2022/11/05 00:36:04;;;;;;;1.55;1.20;;;10.00;80.40;;;;;;5087656;28;20619;-70
2022/11/05 00:38:30;;;;;;;2.08;1.10;;;10.00;80.40;;;;;;5089565;28;20122;-71
2022/11/05 00:40:56;;;;;;;3.30;1.33;;;10.00;80.50;;;;;;5083626;28;20498;-69
2022/11/05 00:46:05;;;;;;;1.83;1.20;;;10.10;80.60;;;;;;5082090;28;20074;-70
2022/11/05 00:51:16;;;;;;;1.23;0.95;;;10.00;80.50;;;;;;5085922;28;20088;-69
2022/11/05 00:53:41;;;;;;;1.33;1.20;;;10.00;80.60;;;;;;5087741;28;20031;-69
2022/11/05 00:56:07;;;;;;;2.20;1.27;;;9.90;80.50;;;;;;5085387;28;20032;-66
2022/11/05 00:58:32;;;;;;;1.80;1.05;;;9.90;80.50;;;;;;5088295;28;20035;-65
2022/11/05 01:01:00;;;;;;;1.35;1.10;;;9.90;80.60;;;;;;5089318;28;20538;-65
2022/11/05 01:03:32;;;;;;;1.23;1.13;;;9.80;80.60;;;;;;5090364;28;20096;-67
2022/11/05 01:06:09;;;;;;;1.55;1.33;;;9.70;80.80;;;;;;5089045;28;20514;-66
2022/11/05 01:08:35;;;;;;;3.70;1.65;;;9.60;81.00;;;;;;5077534;28;20020;-69
2022/11/05 01:11:08;;;;;;;1.90;1.38;;;9.60;81.10;;;;;;5087873;28;20640;-69
2022/11/05 01:13:34;;;;;;;3.17;1.92;;;9.60;81.10;;;;;;5090054;28;20371;-69
2022/11/05 01:16:05;;;;;;;1.35;0.98;;;9.50;81.10;;;;;;5067855;28;20024;-66
2022/11/05 01:18:30;;;;;;;1.92;1.13;;;9.50;81.10;;;;;;5089109;28;20078;-66
2022/11/05 01:20:56;;;;;;;2.33;1.10;;;9.50;81.00;;;;;;5089241;28;20028;-66
2022/11/05 01:23:22;;;;;;;1.35;0.98;;;9.40;81.00;;;;;;5091512;28;20536;-66
2022/11/05 01:25:47;;;;;;;1.00;0.90;;;9.40;80.90;;;;;;5100541;28;20032;-67
2022/11/05 01:28:13;;;;;;;2.08;1.25;;;9.40;80.90;;;;;;5089857;28;20024;-66
2022/11/05 01:30:39;;;;;;;2.38;1.20;;;9.30;80.70;;;;;;5090031;28;20077;-66
2022/11/05 01:33:04;;;;;;;1.20;1.10;;;9.30;80.60;;;;;;5089747;28;20024;-66
2022/11/05 01:35:30;;;;;;;1.45;0.95;;;9.30;80.50;;;;;;5104121;28;20019;-66
2022/11/05 01:37:56;;;;;;;1.95;1.10;;;9.20;80.40;;;;;;5088864;28;20039;-66
2022/11/05 01:40:24;;;;;;;1.13;1.02;;;9.10;80.30;;;;;;5088267;28;20029;-67
2022/11/05 01:42:49;;;;;;;1.25;0.93;;;9.10;80.30;;;;;;5089810;28;20443;-67
2022/11/05 01:45:22;;;;;;;1.00;1.00;;;9.10;80.40;;;;;;5089989;28;20028;-66
2022/11/05 01:47:57;;;;;;;;;;;9.00;80.20;;;;;;5089934;28;20027;-67
2022/11/05 01:50:30;;;;;;;2.50;1.33;;;8.90;80.80;;;;;;5089850;28;19935;-67
2022/11/05 01:53:11;;;;;;;1.40;1.30;;;8.90;80.30;;;;;;5101939;28;20479;-66
2022/11/05 01:55:41;;;;;;;1.25;1.15;;;8.80;80.10;;;;;;5083496;28;20028;-70
2022/11/05 01:58:11;;;;;;;4.97;0.90;;;8.80;80.10;;;;;;5103894;28;20368;-66
2022/11/05 02:00:39;;;;;;;1.67;1.25;;;8.70;80.60;;;;;;5089613;28;20028;-66
2022/11/05 02:03:05;;;;;;;1.45;0.98;;;8.70;80.00;;;;;;5096791;28;20023;-69
2022/11/05 02:05:32;;;;;;;2.47;1.20;;;8.70;79.90;;;;;;5112237;28;20038;-70
2022/11/05 02:07:58;;;;;;;1.13;0.88;;;8.60;80.00;;;;;;5111880;28;20024;-71
2022/11/05 02:10:25;;;;;;;1.05;0.98;;;8.60;80.00;;;;;;5113575;28;20498;-67
2022/11/05 02:12:50;;;;;;;1.52;1.10;;;8.60;80.00;;;;;;5097583;28;20483;-66
2022/11/05 02:15:33;;;;;;;0.80;0.80;;;8.60;79.90;;;;;;5093243;28;20036;-67
2022/11/05 02:18:23;;;;;;;1.20;0.90;;;8.60;80.30;;;;;;5092764;28;20032;-69
2022/11/05 02:21:11;;;;;;;1.92;1.00;;;8.50;79.90;;;;;;5101280;28;20399;-70
2022/11/05 02:24:30;;;;;;;1.63;1.02;;;8.50;79.90;;;;;;5073396;28;20031;-70
2022/11/05 02:27:19;;;;;;;0.70;0.70;;;8.40;79.90;;;;;;5097715;28;20459;-66
2022/11/05 02:30:08;;;;;;;1.30;0.77;;;8.40;79.90;;;;;;5093166;28;20024;-66
2022/11/05 02:32:50;;;;;;;1.92;1.05;;;8.30;79.70;;;;;;5101511;28;20437;-66
2022/11/05 02:35:59;;;;;;;1.10;1.00;;;8.30;79.80;;;;;;5096016;28;20032;-66
2022/11/05 02:38:39;;;;;;;3.72;1.40;;;8.30;79.70;;;;;;5092734;28;20024;-66
2022/11/05 02:41:13;;;;;;;1.15;0.98;;;8.30;79.90;;;;;;5100553;28;20020;-66
2022/11/05 02:44:20;;;;;;;2.05;0.85;;;8.20;79.80;;;;;;5093765;28;20119;-66
2022/11/05 02:47:12;;;;;;;0.98;0.75;;;8.30;79.70;;;;;;5099923;28;20016;-67
2022/11/05 02:49:53;;;;;;;1.48;0.70;;;8.20;79.70;;;;;;5090555;28;20058;-71
2022/11/05 02:52:22;;;;;;;3.08;0.90;;;8.10;79.80;;;;;;5112102;28;20027;-66
2022/11/05 02:54:58;;;;;;;2.28;1.00;;;8.10;79.80;;;;;;5092935;28;20054;-67
2022/11/05 02:57:28;;;;;;;0.82;0.80;;;8.10;79.70;;;;;;5092349;28;20028;-66
2022/11/05 03:00:01;;;;;;;0.80;0.68;;;8.10;79.60;;;;;;5092120;28;20073;-66
2022/11/05 03:02:27;;;;;;;0.95;0.85;;;8.10;79.60;;;;;;5092343;28;20079;-66
2022/11/05 03:04:53;;;;;;;2.20;0.80;;;8.00;79.50;;;;;;5091068;28;20047;-66
2022/11/05 03:07:29;;;;;;;0.65;0.65;;;8.00;79.50;;;;;;5090608;28;20024;-66
2022/11/05 03:10:50;;;;;;;1.00;0.88;;;8.10;79.40;;;;;;5091191;28;20048;-66
2022/11/05 03:13:40;;;;;;;1.50;0.95;;;8.00;79.30;;;;;;5023809;28;20056;-70
2022/11/05 03:16:16;;;;;;;1.15;0.77;;;8.00;79.40;;;;;;5005145;28;20035;-71
2022/11/05 03:19:00;;;;;;;1.65;0.85;;;7.90;79.40;;;;;;5060010;28;20085;-66
2022/11/05 03:21:45;;;;;;;0.88;0.88;;;7.90;79.40;;;;;;5093640;28;20117;-68
2022/11/05 03:24:21;;;;;;;1.17;0.80;;;7.90;79.40;;;;;;5091685;28;20027;-67
2022/11/05 03:27:18;;;;;;;0.70;0.70;;;7.90;79.60;;;;;;5092601;28;20016;-71
2022/11/05 03:29:53;;;;;;;6.28;1.38;;;7.90;79.50;;;;;;5098577;28;20016;-67
2022/11/05 03:32:21;;;;;;;2.95;1.00;;;7.80;79.70;;;;;;5093349;28;20024;-66
2022/11/05 03:34:57;;;;;;;1.45;0.77;;;7.80;79.80;;;;;;5084533;28;20472;-65
2022/11/05 03:37:27;;;;;;;1.80;1.17;;;7.80;79.90;;;;;;5097035;28;20028;-70
2022/11/05 03:39:58;;;;;;;0.98;0.88;;;7.90;80.00;;;;;;5111634;28;20024;-69
2022/11/05 03:42:27;;;;;;;1.73;0.85;;;7.90;80.60;;;;;;5111412;28;20555;-69
2022/11/05 03:44:57;;;;;;;3.17;1.25;;;8.00;80.00;;;;;;5111485;28;20533;-69
2022/11/05 03:47:28;;;;;;;1.63;1.13;;;8.10;80.10;;;;;;5110738;28;20044;-69
2022/11/05 03:50:00;;;;;;;0.93;0.93;;;8.20;80.30;;;;;;5110483;28;20019;-65
2022/11/05 03:52:31;;;;;;;1.33;0.77;;;8.30;80.20;;;;;;5096380;28;20045;-67
2022/11/05 03:54:56;;;;;;;0.93;0.93;;;8.30;80.20;;;;;;5091243;28;20044;-66
2022/11/05 03:57:33;;;;;;;1.15;0.82;;;8.30;80.20;;;;;;5089906;28;20140;-66
2022/11/05 03:59:58;;;;;;;1.00;0.80;;;8.40;80.30;;;;;;5084151;28;20020;-65
2022/11/05 04:02:25;;;;;;;1.55;1.10;;;8.40;80.50;;;;;;5097604;28;20028;-66
2022/11/05 04:04:52;;;;;;;1.33;0.90;;;8.40;80.50;;;;;;5085224;28;20017;-66
2022/11/05 04:17:05;;;;;;;1.23;1.00;;;8.30;81.00;;;;;;5090851;28;20058;-66
2022/11/05 04:18:17;;;;;;;2.40;1.30;;;8.30;81.10;;;;;;5090689;28;20118;-67
2022/11/05 04:26:11;;;;;;;1.23;1.00;;;8.50;81.20;;;;;;5090393;28;20059;-67
2022/11/05 04:31:21;;;;;;;1.42;1.08;;;8.50;81.30;;;;;;5090574;28;20051;-67
2022/11/05 04:33:46;;;;;;;1.02;0.80;;;8.40;81.30;;;;;;5089374;28;20032;-66
2022/11/05 04:36:12;;;;;;;2.80;1.10;;;8.40;81.30;;;;;;5089464;28;20050;-66
2022/11/05 04:38:38;;;;;;;1.20;0.98;;;8.40;81.40;;;;;;5103398;28;20032;-66
2022/11/05 04:41:14;;;;;;;1.30;1.08;;;8.50;81.50;;;;;;5090351;28;20024;-66
2022/11/05 04:43:40;;;;;;;0.73;0.73;;;8.50;81.50;;;;;;5088953;28;20032;-66
2022/11/05 04:46:05;;;;;;;1.38;1.00;;;8.50;81.50;;;;;;5096865;28;20110;-66
2022/11/05 04:48:31;;;;;;;1.33;0.90;;;8.50;81.60;;;;;;5096426;28;20047;-66
2022/11/05 04:50:57;;;;;;;0.73;0.73;;;8.50;81.60;;;;;;5099973;28;20068;-66
2022/11/05 04:53:22;;;;;;;1.65;0.93;;;8.40;81.70;;;;;;5089378;28;20028;-66
2022/11/05 04:55:48;;;;;;;2.15;1.20;;;8.40;81.70;;;;;;5088884;28;20029;-66
2022/11/05 04:58:14;;;;;;;0.88;0.80;;;8.40;81.70;;;;;;5090077;28;20032;-65
2022/11/05 05:00:39;;;;;;;1.92;1.23;;;8.30;81.70;;;;;;5090123;28;20499;-65
2022/11/05 05:03:05;;;;;;;2.70;1.15;;;8.30;81.70;;;;;;5088598;28;20157;-69
2022/11/05 05:05:31;;;;;;;1.25;0.90;;;8.30;82.00;;;;;;5096636;28;20051;-69
2022/11/05 05:08:05;;;;;;;1.20;1.10;;;8.30;82.00;;;;;;5107364;28;20035;-66
2022/11/05 05:10:31;;;;;;;1.27;0.95;;;8.30;82.00;;;;;;5088630;28;20613;-66
2022/11/05 05:12:57;;;;;;;1.38;1.00;;;8.30;82.00;;;;;;5084606;28;20067;-66
2022/11/05 05:15:23;;;;;;;1.70;1.17;;;8.30;82.00;;;;;;5090426;28;20086;-67
2022/11/05 05:17:50;;;;;;;1.23;1.05;;;8.30;81.90;;;;;;5075410;28;20028;-70
2022/11/05 05:23:00;;;;;;;0.65;0.65;;;8.30;81.90;;;;;;5088810;28;20520;-66
2022/11/05 05:25:25;;;;;;;1.17;1.02;;;8.20;81.90;;;;;;5075332;28;20028;-66
2022/11/05 05:27:51;;;;;;;1.25;1.02;;;8.20;81.90;;;;;;5089672;28;20038;-66
2022/11/05 05:30:17;;;;;;;1.20;1.10;;;8.20;82.00;;;;;;5089759;28;20342;-66
2022/11/05 05:32:42;;;;;;;1.30;0.95;;;8.20;82.10;;;;;;5089843;28;20039;-66
2022/11/05 05:35:09;;;;;;;1.05;0.95;;;8.20;82.20;;;;;;5091991;28;20034;-69
2022/11/05 05:37:34;;;;;;;5.65;1.48;;;8.20;82.20;;;;;;5092286;28;20027;-69
2022/11/05 05:40:00;;;;;;;2.20;1.35;;;8.20;82.20;;;;;;5091778;28;20031;-65
2022/11/05 05:42:26;;;;;;;4.25;1.88;;;8.20;82.20;;;;;;5093462;28;20027;-69
2022/11/05 05:44:51;;;;;;;1.92;1.02;;;8.20;82.30;;;;;;5093826;28;20400;-69
2022/11/05 05:47:17;;;;;;;1.23;1.13;;;8.20;82.30;;;;;;5092688;28;20070;-69
2022/11/05 05:49:43;;;;;;;1.13;1.02;;;8.20;82.20;;;;;;5099629;28;20027;-69
2022/11/05 05:52:08;;;;;;;1.58;1.42;;;8.20;82.20;;;;;;5094583;28;20121;-69
2022/11/05 05:54:34;;;;;;;1.63;1.15;;;8.20;82.30;;;;;;5098646;28;20462;-65
2022/11/05 05:56:59;;;;;;;4.50;1.48;;;8.20;82.30;;;;;;5092793;28;20028;-65
2022/11/05 05:59:25;;;;;;;3.00;1.85;;;8.20;82.50;;;;;;5093801;28;20048;-69
2022/11/05 06:01:51;;;;;;;3.00;1.83;;;8.10;82.60;;;;;;5091149;28;20019;-69
2022/11/05 06:04:16;;;;;;;2.63;1.63;;;8.10;82.70;;;;;;5093124;28;20039;-69
2022/11/05 06:06:45;;;;;;;2.75;1.75;;;8.10;83.00;;;;;;5090852;28;20528;-66
2022/11/05 06:09:11;;;;;;;1.30;1.00;;;8.10;83.00;;;;;;5098748;28;20441;-69
2022/11/05 06:11:37;;;;;;;1.98;1.35;;;8.10;82.90;;;;;;5092439;28;20127;-66
2022/11/05 06:14:03;;;;;;;1.38;1.27;;;8.10;82.80;;;;;;5093072;28;20111;-66
2022/11/05 06:16:34;;;;;;;6.47;1.92;;;8.10;82.80;;;;;;5092204;28;20025;-66
2022/11/05 06:19:01;;;;;;;3.25;2.10;;;8.10;82.80;;;;;;5092636;28;20111;-69
2022/11/05 06:21:26;;;;;;;1.95;1.33;;;8.10;83.00;;;;;;5092123;28;20023;-66
2022/11/05 06:23:52;;;;;;;3.15;1.70;;;8.10;83.10;;;;;;5092825;28;20028;-66
2022/11/05 06:26:18;;;;;;;1.38;1.25;;;8.10;83.10;;;;;;5092357;28;20024;-66
2022/11/05 06:28:44;;;;;;;4.18;1.55;;;8.10;83.00;;;;;;5097543;28;20418;-69
2022/11/05 06:31:12;;;;;;;3.20;1.35;;;8.10;82.90;;;;;;5094062;27;20020;-69
2022/11/05 06:33:38;;;;;;;3.45;1.90;;;8.10;82.90;;;;;;5090542;28;20032;-69
2022/11/05 06:36:05;;;;;;;1.50;1.40;;;8.10;83.00;;;;;;5098106;28;20106;-70
2022/11/05 06:38:33;;;;;;;1.60;1.45;;;8.10;82.90;;;;;;5091986;28;20032;-70
2022/11/05 06:40:59;;;;;;;2.35;1.85;;;8.10;82.90;;;;;;5090737;28;20012;-69
2022/11/05 06:43:26;;;;;;;1.98;1.30;;;8.10;82.90;;;;;;5092396;28;20099;-69
2022/11/05 06:45:52;;;;;;;1.88;1.23;;;8.10;82.90;;;;;;5089957;28;20540;-69
2022/11/05 06:48:18;;;;;;;4.00;1.80;;;8.20;83.00;;;;;;5099446;28;20020;-70
2022/11/05 06:50:44;;;;;;;2.88;1.85;;;8.20;83.00;;;;;;5104898;28;20035;-69
2022/11/05 06:53:11;;;;;;;3.55;1.35;;;8.10;83.00;;;;;;5105895;28;20024;-66
2022/11/05 06:55:36;;;;;;;1.40;1.30;;;8.10;83.00;;;;;;5104490;28;20453;-70
2022/11/05 06:58:03;;;;;;;3.63;1.92;;;8.10;83.10;;;;;;5110687;28;20104;-70
2022/11/05 07:00:28;;;;;;;3.55;1.85;;;8.10;83.20;;;;;;5112299;28;20441;-69
2022/11/05 07:02:57;;;;;;;2.40;1.25;;;8.10;83.30;;;;;;5112002;28;20023;-70
2022/11/05 07:05:23;;;;;;;1.73;1.30;;;8.20;83.30;;;;;;5111965;28;20544;-70
2022/11/05 07:07:49;;;;;;;8.68;1.50;;;8.20;83.20;;;;;;5110012;28;20046;-70
2022/11/05 07:10:17;;;;;;;5.82;1.50;;;8.20;83.20;;;;;;5112110;28;20052;-66
2022/11/05 07:12:43;;;;;;;2.03;1.20;;;8.20;83.20;;;;;;5080459;28;20080;-66
2022/11/05 07:15:11;;;;;;;1.95;1.83;;;8.20;83.20;;;;;;5091815;28;20426;-66
2022/11/05 07:17:36;;;;;;;2.85;1.92;;;8.20;83.20;;;;;;5091907;28;20032;-66
2022/11/05 07:20:04;;;;;;;3.08;1.70;;;8.20;83.50;;;;;;5091462;28;20467;-66
2022/11/05 07:22:30;;;;;;;3.13;1.60;;;8.10;83.50;;;;;;5091030;28;20020;-66
2022/11/05 07:24:56;;;;;;;3.58;2.55;;;8.20;83.80;;;;;;5093671;28;20086;-69
2022/11/05 07:27:22;;;;;;;2.15;1.60;;;8.20;83.80;;;;;;5110430;28;20486;-70
2022/11/05 07:29:47;;;;;;;3.35;1.85;;;8.20;83.60;;;;;;5097798;28;20071;-70
2022/11/05 07:32:13;;;;;;;2.65;1.50;;;8.20;83.40;;;;;;5109951;28;20080;-70
2022/11/05 07:34:39;;;;;;;4.28;2.25;;;8.30;83.40;;;;;;5098758;28;20075;-66
2022/11/05 07:37:05;;;;;;;3.75;2.15;;;8.30;83.40;;;;;;5089099;28;20033;-66
2022/11/05 07:39:31;;;;;;;6.13;2.30;;;8.30;83.40;;;;;;5090245;28;20039;-66
2022/11/05 07:41:56;;;;;;;5.13;2.25;;;8.30;83.40;;;;;;5091407;28;20024;-66
2022/11/05 07:44:22;;;;;;;3.83;1.60;;;8.30;83.40;;;;;;5091379;28;20032;-70
2022/11/05 07:46:49;;;;;;;2.03;1.83;;;8.30;83.40;;;;;;5104893;28;20024;-70
2022/11/05 07:49:15;;;;;;;2.30;1.83;;;8.30;83.40;;;;;;5111198;28;20510;-70
2022/11/05 07:51:41;;;;;;;3.85;2.33;;;8.40;83.50;;;;;;5110919;28;20023;-70
2022/11/05 07:54:06;;;;;;;3.13;1.90;;;8.40;83.40;;;;;;5099619;28;20047;-70
2022/11/05 07:56:32;;;;;;;4.43;2.25;;;8.40;83.30;;;;;;5082408;28;20045;-70
2022/11/05 07:58:58;;;;;;;2.53;1.92;;;8.50;83.30;;;;;;5109228;28;20035;-69
2022/11/05 08:01:23;;;;;;;2.13;1.88;;;8.50;83.20;;;;;;5111043;28;20019;-69
2022/11/05 08:03:49;;;;;;;2.10;1.90;;;8.60;83.20;;;;;;5106795;28;20028;-70
2022/11/05 08:06:15;;;;;;;2.38;1.88;;;8.60;83.10;;;;;;5104667;28;20458;-70
2022/11/05 08:08:40;;;;;;;4.13;2.15;;;8.60;83.10;;;;;;5111112;28;20069;-70
2022/11/05 08:11:08;;;;;;;3.38;2.72;;;8.70;83.00;;;;;;5109368;28;20044;-70
2022/11/05 08:13:34;;;;;;;4.32;2.38;;;8.70;83.10;;;;;;5109580;28;20019;-70
2022/11/05 08:16:01;;;;;;;3.88;2.35;;;8.80;83.10;;;;;;5108097;28;20111;-70
2022/11/05 08:18:30;;;;;;;4.00;2.47;;;8.80;83.10;;;;;;5054948;28;20063;-70
2022/11/05 08:20:58;;;;;;;3.67;2.55;;;8.90;83.10;;;;;;5073800;28;20023;-70
2022/11/05 08:23:25;;;;;;;3.50;2.17;;;8.90;83.00;;;;;;5073829;28;20016;-70
2022/11/05 08:25:50;;;;;;;3.45;2.53;;;9.00;82.90;;;;;;5069001;28;20039;-70
2022/11/05 08:28:16;;;;;;;3.92;3.03;;;9.10;82.80;;;;;;5071284;28;20531;-66
2022/11/05 08:30:42;;;;;;;5.63;3.05;;;9.20;82.70;;;;;;5076677;28;20488;-70
2022/11/05 08:33:11;;;;;;;5.05;3.08;;;9.20;82.70;;;;;;5071313;28;20078;-67
2022/11/05 08:35:37;;;;;;;3.17;2.85;;;9.30;82.70;;;;;;5082025;28;20028;-70
2022/11/05 08:38:05;;;;;;;4.10;2.90;;;9.40;82.70;;;;;;5068803;28;20055;-67
2022/11/05 08:40:33;;;;;;;4.18;2.50;;;9.50;82.60;;;;;;5076730;28;20063;-70
2022/11/05 08:43:02;;;;;;;4.70;2.30;;;9.60;83.00;;;;;;5069593;28;20546;-70
2022/11/05 08:45:28;;;;;;;4.10;2.53;;;9.70;82.20;;;;;;5072142;28;20481;-71
2022/11/05 08:48:05;;;;;;;5.95;3.40;;;9.80;82.00;;;;;;5087740;28;20027;-67
2022/11/05 08:50:32;;;;;;;4.00;2.83;;;9.90;81.70;;;;;;5080684;28;20487;-68
2022/11/05 08:52:58;;;;;;;4.82;2.85;;;9.90;81.80;;;;;;5076218;28;20103;-68
2022/11/05 08:55:24;;;;;;;2.65;2.35;;;10.10;81.60;;;;;;5089952;28;20077;-66
2022/11/05 08:58:26;;;;;;;5.40;2.72;;;10.20;81.30;;;;;;5090213;28;20043;-70
2022/11/05 09:00:52;;;;;;;4.43;2.88;;;10.40;80.90;;;;;;5069735;28;20070;-67
2022/11/05 09:03:19;;;;;;;4.72;2.40;;;10.40;80.60;;;;;;5076784;28;20489;-67
2022/11/05 09:05:46;;;;;;;4.32;2.78;;;10.40;80.40;;;;;;5079047;28;20441;-68
2022/11/05 09:08:17;;;;;;;4.10;2.80;;;10.50;80.30;;;;;;5084562;28;20028;-69
2022/11/05 09:10:45;;;;;;;3.13;2.20;;;10.50;80.20;;;;;;5092623;28;20491;-68
2022/11/05 09:13:11;;;;;;;5.47;3.10;;;10.70;80.10;;;;;;5089132;28;20475;-69
2022/11/05 09:15:40;;;;;;;4.68;3.45;;;10.70;79.70;;;;;;5087149;28;20035;-69
2022/11/05 09:18:08;;;;;;;2.47;2.28;;;10.70;79.50;;;;;;5091187;28;20475;-69
2022/11/05 09:20:35;;;;;;;4.32;2.95;;;10.80;79.60;;;;;;5082963;28;20037;-70
2022/11/05 09:23:01;;;;;;;3.92;2.63;;;10.90;79.60;;;;;;5086172;28;20024;-69
2022/11/05 09:25:27;;;;;;;2.75;2.10;;;11.10;79.30;;;;;;5092879;28;20094;-69
2022/11/05 09:27:52;;;;;;;6.47;2.47;;;11.20;79.20;;;;;;5099669;28;20055;-69
2022/11/05 09:30:18;;;;;;;5.13;2.80;;;11.40;78.70;;;;;;5091364;28;20123;-69
2022/11/05 09:32:44;;;;;;;4.40;1.88;;;11.40;78.20;;;;;;5094059;28;20105;-69
2022/11/05 09:35:10;;;;;;;2.85;2.30;;;11.50;78.10;;;;;;5092076;28;20506;-70
2022/11/05 09:37:36;;;;;;;3.67;2.72;;;11.60;78.00;;;;;;5092781;28;20227;-70
2022/11/05 09:40:03;;;;;;;3.10;1.77;;;11.70;77.70;;;;;;5086021;28;20034;-70
2022/11/05 09:42:34;;;;;;;6.80;3.45;;;11.80;77.70;;;;;;5087956;28;20119;-68
2022/11/05 09:45:11;;;;;;;3.40;2.17;;;11.90;77.30;;;;;;5084162;28;20047;-70
2022/11/05 09:47:44;;;;;;;3.45;2.17;;;12.10;77.30;;;;;;5085640;28;20025;-70
2022/11/05 09:50:19;;;;;;;3.72;2.65;;;12.20;76.80;;;;;;5091358;28;20020;-69
2022/11/05 09:52:44;;;;;;;3.42;2.28;;;12.30;76.50;;;;;;5088801;28;20135;-70
2022/11/05 09:55:24;;;;;;;5.57;1.95;;;12.30;76.30;;;;;;5089231;28;20089;-70
2022/11/05 09:58:02;;;;;;;4.35;2.58;;;12.40;76.20;;;;;;5078824;28;20065;-70
2022/11/05 10:00:30;;;;;;;2.50;2.05;;;12.50;75.80;;;;;;5091005;28;20084;-69
2022/11/05 10:03:14;;;;;;;5.40;2.17;;;12.50;75.60;;;;;;5084646;28;20032;-67
2022/11/05 10:05:40;;;;;;;3.25;2.38;;;12.70;75.50;;;;;;5103006;28;20055;-67
2022/11/05 10:08:20;;;;;;;10.05;2.47;;;12.70;74.70;;;;;;5086384;28;20032;-67
2022/11/05 10:11:00;;;;;;;2.55;1.50;;;12.70;74.40;;;;;;5093126;28;20048;-68
2022/11/05 10:13:35;;;;;;;5.15;2.60;;;12.80;74.50;;;;;;5107024;28;20028;-67
2022/11/05 10:16:13;;;;;;;3.15;2.13;;;12.90;74.00;;;;;;5088860;28;20408;-67
2022/11/05 10:18:41;;;;;;;4.00;2.08;;;12.90;74.00;;;;;;5089723;28;20462;-68
2022/11/05 10:21:15;;;;;;;2.20;1.60;;;13.10;73.70;;;;;;5087649;28;20024;-69
2022/11/05 10:23:41;;;;;;;3.17;2.17;;;13.30;73.50;;;;;;5088677;28;20051;-68
2022/11/05 10:26:11;;;;;;;2.95;2.33;;;13.50;73.40;;;;;;5087922;28;20028;-68
2022/11/05 10:28:38;;;;;;;2.53;1.75;;;13.60;72.70;;;;;;5088702;28;20989;-68
2022/11/05 10:31:08;;;;;;;3.75;2.28;;;13.70;72.50;;;;;;5086855;28;20651;-73
2022/11/05 10:33:46;;;;;;;3.67;1.77;;;13.80;71.80;;;;;;5094363;28;20530;-74
2022/11/05 10:36:24;;;;;;;2.65;1.48;;;14.00;71.70;;;;;;5091339;28;20018;-71
2022/11/05 10:38:50;;;;;;;4.18;2.30;;;14.10;71.50;;;;;;5092823;28;20055;-74
2022/11/05 10:41:51;;;;;;;3.45;2.40;;;14.20;70.60;;;;;;5091943;28;20020;-76
2022/11/05 10:44:29;;;;;;;3.13;1.88;;;14.30;70.10;;;;;;5038683;28;20044;-74
2022/11/05 10:47:15;;;;;;;3.72;1.90;;;14.40;69.60;;;;;;5090754;28;20028;-75
2022/11/05 10:49:55;;;;;;;2.80;1.88;;;14.50;69.70;;;;;;5108602;27;20035;-74
2022/11/05 10:52:25;;;;;;;1.85;1.33;;;14.50;69.40;;;;;;5089259;28;20032;-70
2022/11/05 10:54:55;;;;;;;2.83;1.90;;;14.40;69.50;;;;;;5092696;28;20453;-74
2022/11/05 10:57:39;;;;;;;2.50;1.77;;;14.20;69.50;;;;;;5090388;28;20028;-76
2022/11/05 11:00:22;;;;;;;7.18;1.80;;;14.00;69.90;;;;;;5091560;28;20375;-69
2022/11/05 11:02:55;;;;;;;2.50;1.52;;;13.70;70.10;;;;;;5089122;28;20028;-69
2022/11/05 11:05:35;;;;;;;1.90;1.70;;;13.60;70.40;;;;;;5088650;28;20051;-68
2022/11/05 11:08:10;;;;;;;3.05;1.98;;;13.50;70.40;;;;;;5085673;28;20471;-69
2022/11/05 11:10:50;;;;;;;2.78;2.10;;;13.40;70.50;;;;;;5086174;28;20047;-67
2022/11/05 11:13:28;;;;;;;3.15;1.70;;;13.30;71.10;;;;;;5084614;28;20074;-68
2022/11/05 11:16:11;;;;;;;2.75;1.85;;;13.30;71.50;;;;;;5085837;28;20920;-68
2022/11/05 11:18:40;;;;;;;3.45;2.58;;;13.30;71.60;;;;;;5088937;28;20103;-67
2022/11/05 11:21:25;;;;;;;4.45;2.25;;;13.40;71.30;;;;;;5087820;28;20474;-68
2022/11/05 11:24:01;;;;;;;2.47;1.52;;;13.40;71.30;;;;;;5086085;28;20101;-68
2022/11/05 11:26:38;;;;;;;2.60;1.92;;;13.30;71.60;;;;;;5099135;28;20070;-67
2022/11/05 11:29:22;;;;;;;3.08;2.00;;;13.40;71.60;;;;;;5092225;28;20122;-66
2022/11/05 11:31:48;;;;;;;2.30;1.40;;;13.30;71.60;;;;;;5075099;28;20029;-67
2022/11/05 11:34:24;;;;;;;2.53;2.20;;;13.30;71.80;;;;;;5087590;28;20097;-67
2022/11/05 11:36:54;;;;;;;2.45;1.40;;;13.30;71.30;;;;;;5081599;28;20364;-68
2022/11/05 11:39:29;;;;;;;2.63;1.80;;;13.30;71.50;;;;;;5088373;28;20131;-68
2022/11/05 11:42:01;;;;;;;6.05;2.45;;;13.30;71.50;;;;;;5090171;28;20028;-68
2022/11/05 11:44:38;;;;;;;3.10;1.85;;;13.30;71.30;;;;;;5084647;28;20534;-68
2022/11/05 11:47:10;;;;;;;3.30;1.88;;;13.30;71.40;;;;;;5088278;28;20538;-68
2022/11/05 11:49:48;;;;;;;;;;;13.40;71.00;;;;;;5087093;28;20058;-68
2022/11/05 11:52:35;;;;;;;4.93;1.70;;;13.30;70.70;;;;;;5092329;28;19908;-68
2022/11/05 11:55:21;;;;;;;9.18;1.38;;;13.30;70.90;;;;;;5084991;28;20044;-67
2022/11/05 11:58:06;;;;;;;3.13;1.98;;;13.40;70.90;;;;;;5090145;28;20545;-68
2022/11/05 12:00:40;;;;;;;3.88;1.67;;;13.40;70.30;;;;;;5089287;28;20032;-68
2022/11/05 12:03:06;;;;;;;2.65;1.75;;;13.30;70.10;;;;;;5082485;28;20032;-67
2022/11/05 12:05:38;;;;;;;1.98;1.20;;;13.30;70.30;;;;;;5089329;28;20028;-68
2022/11/05 12:08:13;;;;;;;2.72;1.92;;;13.30;70.50;;;;;;5086904;28;20024;-68
2022/11/05 12:10:53;;;;;;;2.75;1.83;;;13.30;70.20;;;;;;5090398;28;20028;-69
2022/11/05 12:13:19;;;;;;;2.63;1.90;;;13.20;70.50;;;;;;5089534;28;20043;-69
2022/11/05 12:15:54;;;;;;;4.80;1.55;;;13.20;70.60;;;;;;5090106;28;20040;-69
2022/11/05 12:18:38;;;;;;;1.92;1.27;;;13.20;70.40;;;;;;5089293;28;20069;-69
2022/11/05 12:21:21;;;;;;;3.15;1.73;;;13.10;70.60;;;;;;5087879;28;20021;-68
2022/11/05 12:24:02;;;;;;;1.20;1.10;;;13.10;70.60;;;;;;5088823;28;20085;-70
2022/11/05 12:26:57;;;;;;;4.65;2.03;;;13.10;70.90;;;;;;5086350;28;20036;-69
2022/11/05 12:29:40;;;;;;;4.50;1.67;;;13.00;70.70;;;;;;5088007;28;20093;-67
2022/11/05 12:32:31;;;;;;;1.58;1.40;;;13.00;71.00;;;;;;5087946;28;20116;-64
2022/11/05 12:35:21;;;;;;;2.75;1.40;;;13.00;70.90;;;;;;5089373;28;20161;-68
2022/11/05 12:37:59;;;;;;;3.72;1.80;;;13.00;71.00;;;;;;5081694;28;20107;-69
2022/11/05 12:40:39;;;;;;;2.63;1.30;;;13.00;71.20;;;;;;5082394;28;20020;-68
2022/11/05 12:43:30;;;;;;;3.15;1.52;;;13.00;71.30;;;;;;5081356;28;20064;-69
2022/11/05 12:46:27;;;;;;;3.95;1.80;;;13.10;71.00;;;;;;5086917;28;20340;-69
2022/11/05 12:49:14;;;;;;;2.03;1.52;;;13.20;70.90;;;;;;5085814;28;20490;-68
2022/11/05 12:51:52;;;;;;;4.10;2.03;;;13.20;71.00;;;;;;5087603;28;20031;-68
2022/11/05 12:54:49;;;;;;;2.00;1.70;;;13.20;71.30;;;;;;5078104;28;20103;-68
2022/11/05 12:57:16;;;;;;;3.10;1.80;;;13.30;70.60;;;;;;5084945;28;20027;-67
2022/11/05 13:00:19;;;;;;;6.97;2.03;;;13.30;70.60;;;;;;5084428;28;20448;-67
2022/11/05 13:03:16;;;;;;;2.70;2.10;;;13.30;70.30;;;;;;5096543;28;20020;-71
2022/11/05 13:05:51;;;;;;;2.25;1.50;;;13.40;70.50;;;;;;5088659;28;20077;-67
2022/11/05 13:08:55;;;;;;;2.78;1.33;;;13.40;70.50;;;;;;5082215;28;20043;-67
2022/11/05 13:11:33;;;;;;;2.25;1.55;;;13.40;70.40;;;;;;5064991;28;20044;-68
2022/11/05 13:14:06;;;;;;;3.45;1.67;;;13.40;70.20;;;;;;5081045;28;20031;-66
2022/11/05 13:16:36;;;;;;;2.20;1.45;;;13.40;70.20;;;;;;5085666;28;20048;-67
2022/11/05 13:19:17;;;;;;;3.97;1.77;;;13.40;70.30;;;;;;5081711;28;20032;-68
2022/11/05 13:21:47;;;;;;;2.05;1.50;;;13.40;70.20;;;;;;5085893;28;20049;-69
2022/11/05 13:24:18;;;;;;;2.70;1.75;;;13.40;70.20;;;;;;5084716;28;20028;-68
2022/11/05 13:27:13;;;;;;;4.13;1.73;;;13.40;70.30;;;;;;5100483;28;20028;-68
2022/11/05 13:30:03;;;;;;;2.85;2.08;;;13.40;70.20;;;;;;5088245;28;20047;-65
2022/11/05 13:32:31;;;;;;;2.58;1.40;;;13.40;70.50;;;;;;5086858;28;20423;-68
2022/11/05 13:35:03;;;;;;;2.20;1.83;;;13.40;70.80;;;;;;5087909;28;20027;-68
2022/11/05 13:40:36;;;;;;;2.80;1.85;;;13.40;70.50;;;;;;5088264;28;20328;-68
2022/11/05 13:43:20;;;;;;;2.47;1.63;;;13.40;70.60;;;;;;5088806;28;20024;-68
2022/11/05 13:46:19;;;;;;;2.05;1.80;;;13.40;70.90;;;;;;5088592;28;20043;-68
2022/11/05 13:49:19;;;;;;;4.35;1.65;;;13.40;70.80;;;;;;5051945;28;20506;-68
2022/11/05 13:51:55;;;;;;;2.95;1.33;;;13.30;70.90;;;;;;5090744;28;20028;-68
2022/11/05 13:54:45;;;;;;;1.77;1.60;;;13.30;71.20;;;;;;5088475;28;20020;-69
2022/11/05 13:57:36;;;;;;;2.75;1.70;;;13.20;71.20;;;;;;5105924;27;20024;-68
2022/11/05 14:00:26;;;;;;;2.90;1.75;;;13.30;71.50;;;;;;5090645;28;20070;-69
2022/11/05 14:03:19;;;;;;;5.55;1.33;;;13.30;71.30;;;;;;5101300;28;20352;-69
2022/11/05 14:06:05;;;;;;;3.10;1.98;;;13.30;71.40;;;;;;5085055;28;20036;-67